sensor_id;sensor_type;location;lat;lon;timestamp;P1;durP1;ratioP1;P2;durP2;ratioP2
72286;SDS011;60221;45.696;16.076;2023-04-25T00:01:16;2.70;;;0.30;;
72286;SDS011;60221;45.696;16.076;2023-04-25T00:03:43;3.20;;;0.50;;
72286;SDS011;60221;45.696;16.076;2023-04-25T00:06:10;1.70;;;0.10;;
72286;SDS011;60221;45.696;16.076;2023-04-25T00:08:37;3.20;;;0.10;;
72286;SDS011;60221;45.696;16.076;2023-04-25T00:11:04;2.40;;;0.10;;
72286;SDS011;60221;45.696;16.076;2023-04-25T00:13:31;2.70;;;0.30;;
72286;SDS011;60221;45.696;16.076;2023-04-25T00:15:58;3.40;;;0.30;;
72286;SDS011;60221;45.696;16.076;2023-04-25T00:18:25;2.00;;;0.20;;
72286;SDS011;60221;45.696;16.076;2023-04-25T00:20:51;2.60;;;0.20;;
72286;SDS011;60221;45.696;16.076;2023-04-25T00:23:18;2.40;;;0.20;;
72286;SDS011;60221;45.696;16.076;2023-04-25T00:25:45;2.30;;;0.20;;
72286;SDS011;60221;45.696;16.076;2023-04-25T00:28:13;2.70;;;0.20;;
72286;SDS011;60221;45.696;16.076;2023-04-25T00:30:40;2.70;;;0.20;;
72286;SDS011;60221;45.696;16.076;2023-04-25T00:33:07;1.40;;;0.10;;
72286;SDS011;60221;45.696;16.076;2023-04-25T00:35:34;3.30;;;0.10;;
72286;SDS011;60221;45.696;16.076;2023-04-25T00:38:01;2.10;;;0.10;;
72286;SDS011;60221;45.696;16.076;2023-04-25T00:40:28;1.30;;;0.10;;
72286;SDS011;60221;45.696;16.076;2023-04-25T00:42:55;2.90;;;0.30;;
72286;SDS011;60221;45.696;16.076;2023-04-25T00:45:22;3.80;;;0.10;;
72286;SDS011;60221;45.696;16.076;2023-04-25T00:47:50;1.50;;;0.10;;
72286;SDS011;60221;45.696;16.076;2023-04-25T00:50:17;3.10;;;0.20;;
72286;SDS011;60221;45.696;16.076;2023-04-25T00:52:44;3.10;;;0.10;;
72286;SDS011;60221;45.696;16.076;2023-04-25T00:55:11;2.80;;;0.20;;
72286;SDS011;60221;45.696;16.076;2023-04-25T00:57:39;1.80;;;0.10;;
72286;SDS011;60221;45.696;16.076;2023-04-25T01:00:07;3.70;;;0.20;;
72286;SDS011;60221;45.696;16.076;2023-04-25T01:02:36;3.50;;;0.20;;
72286;SDS011;60221;45.696;16.076;2023-04-25T01:05:03;1.30;;;0.10;;
72286;SDS011;60221;45.696;16.076;2023-04-25T01:07:30;2.00;;;0.20;;
72286;SDS011;60221;45.696;16.076;2023-04-25T01:09:57;3.30;;;0.20;;
72286;SDS011;60221;45.696;16.076;2023-04-25T01:12:24;1.40;;;0.10;;
72286;SDS011;60221;45.696;16.076;2023-04-25T01:14:51;1.70;;;0.20;;
72286;SDS011;60221;45.696;16.076;2023-04-25T01:17:18;2.40;;;0.20;;
72286;SDS011;60221;45.696;16.076;2023-04-25T01:19:45;2.90;;;0.10;;
72286;SDS011;60221;45.696;16.076;2023-04-25T01:22:14;1.30;;;0.10;;
72286;SDS011;60221;45.696;16.076;2023-04-25T01:24:42;3.20;;;0.20;;
72286;SDS011;60221;45.696;16.076;2023-04-25T01:27:09;2.20;;;0.10;;
72286;SDS011;60221;45.696;16.076;2023-04-25T01:29:37;3.00;;;0.30;;
72286;SDS011;60221;45.696;16.076;2023-04-25T01:32:04;2.20;;;0.20;;
72286;SDS011;60221;45.696;16.076;2023-04-25T01:34:32;1.80;;;0.10;;
72286;SDS011;60221;45.696;16.076;2023-04-25T01:36:59;2.40;;;0.10;;
72286;SDS011;60221;45.696;16.076;2023-04-25T01:39:27;0.90;;;0.10;;
72286;SDS011;60221;45.696;16.076;2023-04-25T01:41:54;1.70;;;0.30;;
72286;SDS011;60221;45.696;16.076;2023-04-25T01:44:23;2.20;;;0.10;;
72286;SDS011;60221;45.696;16.076;2023-04-25T01:46:50;1.30;;;0.10;;
72286;SDS011;60221;45.696;16.076;2023-04-25T01:49:16;1.80;;;0.10;;
72286;SDS011;60221;45.696;16.076;2023-04-25T01:51:43;1.20;;;0.10;;
72286;SDS011;60221;45.696;16.076;2023-04-25T01:54:11;1.60;;;0.10;;
72286;SDS011;60221;45.696;16.076;2023-04-25T01:56:38;2.30;;;0.10;;
72286;SDS011;60221;45.696;16.076;2023-04-25T01:59:07;2.00;;;0.10;;
72286;SDS011;60221;45.696;16.076;2023-04-25T02:01:59;0.70;;;0.10;;
72286;SDS011;60221;45.696;16.076;2023-04-25T02:04:26;2.80;;;0.10;;
72286;SDS011;60221;45.696;16.076;2023-04-25T02:06:53;1.60;;;0.10;;
72286;SDS011;60221;45.696;16.076;2023-04-25T02:09:21;2.30;;;0.10;;
72286;SDS011;60221;45.696;16.076;2023-04-25T02:11:52;1.70;;;0.10;;
72286;SDS011;60221;45.696;16.076;2023-04-25T02:14:52;1.30;;;0.10;;
72286;SDS011;60221;45.696;16.076;2023-04-25T02:17:45;1.60;;;0.00;;
72286;SDS011;60221;45.696;16.076;2023-04-25T02:20:12;1.30;;;0.10;;
72286;SDS011;60221;45.696;16.076;2023-04-25T02:22:39;2.70;;;0.20;;
72286;SDS011;60221;45.696;16.076;2023-04-25T02:25:06;1.20;;;0.10;;
72286;SDS011;60221;45.696;16.076;2023-04-25T02:27:33;2.40;;;0.00;;
72286;SDS011;60221;45.696;16.076;2023-04-25T02:30:00;1.40;;;0.10;;
72286;SDS011;60221;45.696;16.076;2023-04-25T02:32:26;1.90;;;0.20;;
72286;SDS011;60221;45.696;16.076;2023-04-25T02:34:53;2.10;;;0.10;;
72286;SDS011;60221;45.696;16.076;2023-04-25T02:37:20;2.90;;;0.10;;
72286;SDS011;60221;45.696;16.076;2023-04-25T02:39:47;1.30;;;0.10;;
72286;SDS011;60221;45.696;16.076;2023-04-25T02:42:14;1.10;;;0.10;;
72286;SDS011;60221;45.696;16.076;2023-04-25T02:44:41;2.00;;;0.10;;
72286;SDS011;60221;45.696;16.076;2023-04-25T02:47:08;1.20;;;0.10;;
72286;SDS011;60221;45.696;16.076;2023-04-25T02:49:34;1.50;;;0.10;;
72286;SDS011;60221;45.696;16.076;2023-04-25T02:52:01;1.20;;;0.10;;
72286;SDS011;60221;45.696;16.076;2023-04-25T02:54:28;1.80;;;0.20;;
72286;SDS011;60221;45.696;16.076;2023-04-25T02:56:55;1.60;;;0.20;;
72286;SDS011;60221;45.696;16.076;2023-04-25T02:59:25;1.20;;;0.10;;
72286;SDS011;60221;45.696;16.076;2023-04-25T03:01:52;3.00;;;0.10;;
72286;SDS011;60221;45.696;16.076;2023-04-25T03:04:19;2.80;;;0.20;;
72286;SDS011;60221;45.696;16.076;2023-04-25T03:06:47;1.40;;;0.10;;
72286;SDS011;60221;45.696;16.076;2023-04-25T03:09:14;1.60;;;0.00;;
72286;SDS011;60221;45.696;16.076;2023-04-25T03:11:41;1.60;;;0.10;;
72286;SDS011;60221;45.696;16.076;2023-04-25T03:14:08;1.60;;;0.10;;
72286;SDS011;60221;45.696;16.076;2023-04-25T03:16:35;1.50;;;0.10;;
72286;SDS011;60221;45.696;16.076;2023-04-25T03:19:02;1.60;;;0.10;;
72286;SDS011;60221;45.696;16.076;2023-04-25T03:21:29;1.20;;;0.10;;
72286;SDS011;60221;45.696;16.076;2023-04-25T03:23:58;0.70;;;0.10;;
72286;SDS011;60221;45.696;16.076;2023-04-25T03:26:25;1.90;;;0.10;;
72286;SDS011;60221;45.696;16.076;2023-04-25T03:28:52;2.00;;;0.50;;
72286;SDS011;60221;45.696;16.076;2023-04-25T03:31:19;1.80;;;0.20;;
72286;SDS011;60221;45.696;16.076;2023-04-25T03:33:46;1.20;;;0.10;;
72286;SDS011;60221;45.696;16.076;2023-04-25T03:36:13;1.00;;;0.10;;
72286;SDS011;60221;45.696;16.076;2023-04-25T03:38:40;2.30;;;0.30;;
72286;SDS011;60221;45.696;16.076;2023-04-25T03:41:08;0.90;;;0.00;;
72286;SDS011;60221;45.696;16.076;2023-04-25T03:43:39;1.10;;;0.00;;
72286;SDS011;60221;45.696;16.076;2023-04-25T03:46:09;5.40;;;0.10;;
72286;SDS011;60221;45.696;16.076;2023-04-25T03:48:36;0.70;;;0.10;;
72286;SDS011;60221;45.696;16.076;2023-04-25T03:51:03;3.80;;;0.00;;
72286;SDS011;60221;45.696;16.076;2023-04-25T03:53:30;1.10;;;0.00;;
72286;SDS011;60221;45.696;16.076;2023-04-25T03:56:20;1.20;;;0.10;;
72286;SDS011;60221;45.696;16.076;2023-04-25T03:58:53;2.70;;;0.10;;
72286;SDS011;60221;45.696;16.076;2023-04-25T04:01:21;1.00;;;0.00;;
72286;SDS011;60221;45.696;16.076;2023-04-25T04:03:48;2.10;;;0.00;;
72286;SDS011;60221;45.696;16.076;2023-04-25T04:06:16;1.50;;;0.00;;
72286;SDS011;60221;45.696;16.076;2023-04-25T04:08:46;5.50;;;0.10;;
72286;SDS011;60221;45.696;16.076;2023-04-25T04:11:13;4.20;;;0.70;;
72286;SDS011;60221;45.696;16.076;2023-04-25T04:13:40;6.70;;;2.10;;
72286;SDS011;60221;45.696;16.076;2023-04-25T04:16:08;4.40;;;1.40;;
72286;SDS011;60221;45.696;16.076;2023-04-25T04:18:35;4.10;;;1.00;;
72286;SDS011;60221;45.696;16.076;2023-04-25T04:21:02;5.10;;;0.30;;
72286;SDS011;60221;45.696;16.076;2023-04-25T04:23:32;4.20;;;0.40;;
72286;SDS011;60221;45.696;16.076;2023-04-25T04:25:59;2.90;;;0.30;;
72286;SDS011;60221;45.696;16.076;2023-04-25T04:29:05;4.60;;;0.30;;
72286;SDS011;60221;45.696;16.076;2023-04-25T04:31:59;3.80;;;0.30;;
72286;SDS011;60221;45.696;16.076;2023-04-25T04:34:28;3.90;;;0.60;;
72286;SDS011;60221;45.696;16.076;2023-04-25T04:36:56;3.30;;;0.30;;
72286;SDS011;60221;45.696;16.076;2023-04-25T04:39:23;3.60;;;0.40;;
72286;SDS011;60221;45.696;16.076;2023-04-25T04:42:12;3.40;;;0.50;;
72286;SDS011;60221;45.696;16.076;2023-04-25T04:45:11;1.90;;;0.20;;
72286;SDS011;60221;45.696;16.076;2023-04-25T04:47:46;3.30;;;0.20;;
72286;SDS011;60221;45.696;16.076;2023-04-25T04:50:36;2.40;;;0.30;;
72286;SDS011;60221;45.696;16.076;2023-04-25T04:53:23;1.90;;;0.10;;
72286;SDS011;60221;45.696;16.076;2023-04-25T04:55:50;2.50;;;0.20;;
72286;SDS011;60221;45.696;16.076;2023-04-25T04:58:27;1.60;;;0.10;;
72286;SDS011;60221;45.696;16.076;2023-04-25T05:01:10;1.40;;;0.10;;
72286;SDS011;60221;45.696;16.076;2023-04-25T05:04:09;2.10;;;0.20;;
72286;SDS011;60221;45.696;16.076;2023-04-25T05:06:48;3.10;;;0.20;;
72286;SDS011;60221;45.696;16.076;2023-04-25T05:09:17;2.30;;;0.20;;
72286;SDS011;60221;45.696;16.076;2023-04-25T05:12:08;2.80;;;0.40;;
72286;SDS011;60221;45.696;16.076;2023-04-25T05:14:50;2.00;;;0.30;;
72286;SDS011;60221;45.696;16.076;2023-04-25T05:17:32;2.20;;;0.30;;
72286;SDS011;60221;45.696;16.076;2023-04-25T05:20:17;3.30;;;0.50;;
72286;SDS011;60221;45.696;16.076;2023-04-25T05:23:04;4.00;;;0.40;;
72286;SDS011;60221;45.696;16.076;2023-04-25T05:26:03;2.30;;;0.20;;
72286;SDS011;60221;45.696;16.076;2023-04-25T05:28:37;5.30;;;0.30;;
72286;SDS011;60221;45.696;16.076;2023-04-25T05:31:18;4.20;;;0.40;;
72286;SDS011;60221;45.696;16.076;2023-04-25T05:33:59;2.00;;;0.50;;
72286;SDS011;60221;45.696;16.076;2023-04-25T05:36:37;1.90;;;0.40;;
72286;SDS011;60221;45.696;16.076;2023-04-25T05:39:04;2.60;;;0.50;;
72286;SDS011;60221;45.696;16.076;2023-04-25T05:42:05;3.30;;;0.50;;
72286;SDS011;60221;45.696;16.076;2023-04-25T05:44:51;3.80;;;0.50;;
72286;SDS011;60221;45.696;16.076;2023-04-25T05:47:44;1.40;;;0.30;;
72286;SDS011;60221;45.696;16.076;2023-04-25T05:50:16;3.00;;;0.70;;
72286;SDS011;60221;45.696;16.076;2023-04-25T05:53:13;3.80;;;0.40;;
72286;SDS011;60221;45.696;16.076;2023-04-25T05:55:42;3.70;;;0.40;;
72286;SDS011;60221;45.696;16.076;2023-04-25T05:58:34;1.90;;;0.40;;
72286;SDS011;60221;45.696;16.076;2023-04-25T06:01:01;2.60;;;0.50;;
72286;SDS011;60221;45.696;16.076;2023-04-25T06:03:29;2.40;;;0.80;;
72286;SDS011;60221;45.696;16.076;2023-04-25T06:05:57;2.20;;;0.60;;
72286;SDS011;60221;45.696;16.076;2023-04-25T06:08:24;1.90;;;0.30;;
72286;SDS011;60221;45.696;16.076;2023-04-25T06:10:51;2.10;;;0.40;;
72286;SDS011;60221;45.696;16.076;2023-04-25T06:13:18;1.80;;;0.50;;
72286;SDS011;60221;45.696;16.076;2023-04-25T06:15:45;2.40;;;0.40;;
72286;SDS011;60221;45.696;16.076;2023-04-25T06:18:12;1.50;;;0.40;;
72286;SDS011;60221;45.696;16.076;2023-04-25T06:20:39;3.30;;;0.60;;
72286;SDS011;60221;45.696;16.076;2023-04-25T06:23:06;2.20;;;0.40;;
72286;SDS011;60221;45.696;16.076;2023-04-25T06:25:45;2.10;;;0.40;;
72286;SDS011;60221;45.696;16.076;2023-04-25T06:28:12;3.00;;;0.30;;
72286;SDS011;60221;45.696;16.076;2023-04-25T06:30:39;2.80;;;0.90;;
72286;SDS011;60221;45.696;16.076;2023-04-25T06:33:09;6.00;;;3.00;;
72286;SDS011;60221;45.696;16.076;2023-04-25T06:35:37;4.40;;;1.60;;
72286;SDS011;60221;45.696;16.076;2023-04-25T06:38:04;2.10;;;0.60;;
72286;SDS011;60221;45.696;16.076;2023-04-25T06:40:31;3.10;;;0.80;;
72286;SDS011;60221;45.696;16.076;2023-04-25T06:42:58;2.40;;;0.80;;
72286;SDS011;60221;45.696;16.076;2023-04-25T06:45:36;2.00;;;0.50;;
72286;SDS011;60221;45.696;16.076;2023-04-25T06:48:03;4.60;;;1.40;;
72286;SDS011;60221;45.696;16.076;2023-04-25T06:50:31;4.90;;;2.10;;
72286;SDS011;60221;45.696;16.076;2023-04-25T06:53:00;4.40;;;2.80;;
72286;SDS011;60221;45.696;16.076;2023-04-25T06:55:28;6.20;;;4.10;;
72286;SDS011;60221;45.696;16.076;2023-04-25T06:58:09;5.50;;;2.90;;
72286;SDS011;60221;45.696;16.076;2023-04-25T07:00:49;22.70;;;15.70;;
72286;SDS011;60221;45.696;16.076;2023-04-25T07:03:16;25.90;;;15.90;;
72286;SDS011;60221;45.696;16.076;2023-04-25T07:05:44;16.80;;;11.20;;
72286;SDS011;60221;45.696;16.076;2023-04-25T07:08:12;16.00;;;10.00;;
72286;SDS011;60221;45.696;16.076;2023-04-25T07:10:39;10.10;;;8.70;;
72286;SDS011;60221;45.696;16.076;2023-04-25T07:13:07;3.80;;;2.00;;
72286;SDS011;60221;45.696;16.076;2023-04-25T07:15:34;2.50;;;0.60;;
72286;SDS011;60221;45.696;16.076;2023-04-25T07:18:01;2.90;;;0.60;;
72286;SDS011;60221;45.696;16.076;2023-04-25T07:20:28;3.70;;;0.80;;
72286;SDS011;60221;45.696;16.076;2023-04-25T07:22:57;3.70;;;1.00;;
72286;SDS011;60221;45.696;16.076;2023-04-25T07:25:24;3.60;;;0.70;;
72286;SDS011;60221;45.696;16.076;2023-04-25T07:27:51;2.50;;;1.10;;
72286;SDS011;60221;45.696;16.076;2023-04-25T07:30:20;2.90;;;0.80;;
72286;SDS011;60221;45.696;16.076;2023-04-25T07:32:47;3.20;;;0.50;;
72286;SDS011;60221;45.696;16.076;2023-04-25T07:35:14;6.70;;;3.50;;
72286;SDS011;60221;45.696;16.076;2023-04-25T07:37:40;5.70;;;1.90;;
72286;SDS011;60221;45.696;16.076;2023-04-25T07:40:10;4.90;;;2.30;;
72286;SDS011;60221;45.696;16.076;2023-04-25T07:42:41;6.00;;;3.10;;
72286;SDS011;60221;45.696;16.076;2023-04-25T07:45:08;3.90;;;2.00;;
72286;SDS011;60221;45.696;16.076;2023-04-25T07:47:36;6.30;;;2.60;;
72286;SDS011;60221;45.696;16.076;2023-04-25T07:50:05;6.10;;;1.90;;
72286;SDS011;60221;45.696;16.076;2023-04-25T07:52:32;3.10;;;1.00;;
72286;SDS011;60221;45.696;16.076;2023-04-25T07:55:06;2.30;;;0.60;;
72286;SDS011;60221;45.696;16.076;2023-04-25T07:57:40;2.10;;;0.40;;
72286;SDS011;60221;45.696;16.076;2023-04-25T08:00:07;1.90;;;0.40;;
72286;SDS011;60221;45.696;16.076;2023-04-25T08:02:41;1.50;;;0.30;;
72286;SDS011;60221;45.696;16.076;2023-04-25T08:05:10;4.50;;;1.50;;
72286;SDS011;60221;45.696;16.076;2023-04-25T08:07:42;2.80;;;0.80;;
72286;SDS011;60221;45.696;16.076;2023-04-25T08:10:10;3.20;;;0.80;;
72286;SDS011;60221;45.696;16.076;2023-04-25T08:12:37;3.60;;;1.30;;
72286;SDS011;60221;45.696;16.076;2023-04-25T08:15:04;4.10;;;0.80;;
72286;SDS011;60221;45.696;16.076;2023-04-25T08:17:33;4.40;;;0.80;;
72286;SDS011;60221;45.696;16.076;2023-04-25T08:20:01;4.30;;;1.40;;
72286;SDS011;60221;45.696;16.076;2023-04-25T08:22:29;3.00;;;0.90;;
72286;SDS011;60221;45.696;16.076;2023-04-25T08:25:11;2.20;;;0.30;;
72286;SDS011;60221;45.696;16.076;2023-04-25T08:27:38;4.80;;;1.90;;
72286;SDS011;60221;45.696;16.076;2023-04-25T08:30:05;2.40;;;0.80;;
72286;SDS011;60221;45.696;16.076;2023-04-25T08:32:33;1.90;;;0.40;;
72286;SDS011;60221;45.696;16.076;2023-04-25T08:35:20;2.00;;;0.30;;
72286;SDS011;60221;45.696;16.076;2023-04-25T08:37:48;4.30;;;1.50;;
72286;SDS011;60221;45.696;16.076;2023-04-25T08:40:16;3.10;;;1.00;;
72286;SDS011;60221;45.696;16.076;2023-04-25T08:42:54;5.40;;;2.30;;
72286;SDS011;60221;45.696;16.076;2023-04-25T08:45:22;2.90;;;0.80;;
72286;SDS011;60221;45.696;16.076;2023-04-25T08:47:49;2.40;;;0.30;;
72286;SDS011;60221;45.696;16.076;2023-04-25T08:50:19;2.80;;;0.40;;
72286;SDS011;60221;45.696;16.076;2023-04-25T08:52:49;2.10;;;0.30;;
72286;SDS011;60221;45.696;16.076;2023-04-25T08:55:19;2.70;;;0.40;;
72286;SDS011;60221;45.696;16.076;2023-04-25T08:57:49;2.20;;;0.40;;
72286;SDS011;60221;45.696;16.076;2023-04-25T09:00:16;3.00;;;0.80;;
72286;SDS011;60221;45.696;16.076;2023-04-25T09:02:43;1.80;;;0.40;;
72286;SDS011;60221;45.696;16.076;2023-04-25T09:05:12;2.90;;;0.90;;
72286;SDS011;60221;45.696;16.076;2023-04-25T09:07:40;3.50;;;0.50;;
72286;SDS011;60221;45.696;16.076;2023-04-25T09:10:07;1.60;;;0.30;;
72286;SDS011;60221;45.696;16.076;2023-04-25T09:12:35;1.20;;;0.20;;
72286;SDS011;60221;45.696;16.076;2023-04-25T09:15:05;3.20;;;0.50;;
72286;SDS011;60221;45.696;16.076;2023-04-25T09:17:52;2.50;;;0.30;;
72286;SDS011;60221;45.696;16.076;2023-04-25T09:20:21;1.80;;;0.40;;
72286;SDS011;60221;45.696;16.076;2023-04-25T09:22:48;1.20;;;0.20;;
72286;SDS011;60221;45.696;16.076;2023-04-25T09:25:15;2.80;;;0.20;;
72286;SDS011;60221;45.696;16.076;2023-04-25T09:27:52;1.90;;;0.60;;
72286;SDS011;60221;45.696;16.076;2023-04-25T09:30:30;1.80;;;0.40;;
72286;SDS011;60221;45.696;16.076;2023-04-25T09:33:05;2.50;;;0.30;;
72286;SDS011;60221;45.696;16.076;2023-04-25T09:35:36;2.60;;;0.20;;
72286;SDS011;60221;45.696;16.076;2023-04-25T09:38:12;2.30;;;0.20;;
72286;SDS011;60221;45.696;16.076;2023-04-25T09:41:05;1.50;;;0.30;;
72286;SDS011;60221;45.696;16.076;2023-04-25T09:43:44;1.40;;;0.20;;
72286;SDS011;60221;45.696;16.076;2023-04-25T09:46:12;1.40;;;0.20;;
72286;SDS011;60221;45.696;16.076;2023-04-25T09:48:47;2.10;;;0.20;;
72286;SDS011;60221;45.696;16.076;2023-04-25T09:51:15;1.90;;;0.50;;
72286;SDS011;60221;45.696;16.076;2023-04-25T09:53:44;1.10;;;0.10;;
72286;SDS011;60221;45.696;16.076;2023-04-25T09:56:23;1.40;;;0.30;;
72286;SDS011;60221;45.696;16.076;2023-04-25T09:58:51;1.30;;;0.30;;
72286;SDS011;60221;45.696;16.076;2023-04-25T10:01:19;1.80;;;0.40;;
72286;SDS011;60221;45.696;16.076;2023-04-25T10:03:56;1.90;;;0.20;;
72286;SDS011;60221;45.696;16.076;2023-04-25T10:06:38;2.60;;;0.40;;
72286;SDS011;60221;45.696;16.076;2023-04-25T10:09:07;2.50;;;0.40;;
72286;SDS011;60221;45.696;16.076;2023-04-25T10:11:35;1.00;;;0.20;;
72286;SDS011;60221;45.696;16.076;2023-04-25T10:14:02;2.30;;;0.30;;
72286;SDS011;60221;45.696;16.076;2023-04-25T10:16:29;1.60;;;0.40;;
72286;SDS011;60221;45.696;16.076;2023-04-25T10:18:56;2.50;;;0.30;;
72286;SDS011;60221;45.696;16.076;2023-04-25T10:21:23;2.30;;;0.20;;
72286;SDS011;60221;45.696;16.076;2023-04-25T10:23:50;2.00;;;0.20;;
72286;SDS011;60221;45.696;16.076;2023-04-25T10:26:18;2.50;;;0.20;;
72286;SDS011;60221;45.696;16.076;2023-04-25T10:28:55;3.40;;;0.30;;
72286;SDS011;60221;45.696;16.076;2023-04-25T10:31:22;2.20;;;0.30;;
72286;SDS011;60221;45.696;16.076;2023-04-25T10:33:49;1.70;;;0.30;;
72286;SDS011;60221;45.696;16.076;2023-04-25T10:36:20;1.40;;;0.30;;
72286;SDS011;60221;45.696;16.076;2023-04-25T10:38:48;1.10;;;0.20;;
72286;SDS011;60221;45.696;16.076;2023-04-25T10:41:17;2.20;;;0.40;;
72286;SDS011;60221;45.696;16.076;2023-04-25T10:43:45;5.80;;;2.70;;
72286;SDS011;60221;45.696;16.076;2023-04-25T10:46:13;7.60;;;4.00;;
72286;SDS011;60221;45.696;16.076;2023-04-25T10:48:44;3.50;;;0.70;;
72286;SDS011;60221;45.696;16.076;2023-04-25T10:51:15;2.20;;;0.40;;
72286;SDS011;60221;45.696;16.076;2023-04-25T10:54:01;3.80;;;0.40;;
72286;SDS011;60221;45.696;16.076;2023-04-25T10:56:29;1.30;;;0.20;;
72286;SDS011;60221;45.696;16.076;2023-04-25T10:59:16;2.40;;;0.30;;
72286;SDS011;60221;45.696;16.076;2023-04-25T11:01:43;2.80;;;0.20;;
72286;SDS011;60221;45.696;16.076;2023-04-25T11:04:30;1.50;;;0.20;;
72286;SDS011;60221;45.696;16.076;2023-04-25T11:09:35;3.10;;;0.30;;
72286;SDS011;60221;45.696;16.076;2023-04-25T11:12:02;3.00;;;0.30;;
72286;SDS011;60221;45.696;16.076;2023-04-25T11:14:29;2.60;;;0.40;;
72286;SDS011;60221;45.696;16.076;2023-04-25T11:16:56;3.70;;;0.50;;
72286;SDS011;60221;45.696;16.076;2023-04-25T11:19:26;1.50;;;0.30;;
72286;SDS011;60221;45.696;16.076;2023-04-25T11:22:00;1.70;;;0.30;;
72286;SDS011;60221;45.696;16.076;2023-04-25T11:24:31;1.50;;;0.20;;
72286;SDS011;60221;45.696;16.076;2023-04-25T11:26:58;2.20;;;0.60;;
72286;SDS011;60221;45.696;16.076;2023-04-25T11:29:29;2.50;;;0.90;;
72286;SDS011;60221;45.696;16.076;2023-04-25T11:31:57;3.20;;;0.90;;
72286;SDS011;60221;45.696;16.076;2023-04-25T11:34:28;2.20;;;0.70;;
72286;SDS011;60221;45.696;16.076;2023-04-25T11:36:57;2.10;;;0.50;;
72286;SDS011;60221;45.696;16.076;2023-04-25T11:39:24;1.80;;;0.30;;
72286;SDS011;60221;45.696;16.076;2023-04-25T11:41:52;1.80;;;0.40;;
72286;SDS011;60221;45.696;16.076;2023-04-25T11:44:19;1.80;;;0.30;;
72286;SDS011;60221;45.696;16.076;2023-04-25T11:46:46;3.00;;;0.90;;
72286;SDS011;60221;45.696;16.076;2023-04-25T11:49:14;1.70;;;0.30;;
72286;SDS011;60221;45.696;16.076;2023-04-25T11:51:41;2.10;;;0.30;;
72286;SDS011;60221;45.696;16.076;2023-04-25T11:54:08;1.60;;;0.20;;
72286;SDS011;60221;45.696;16.076;2023-04-25T11:56:35;3.40;;;0.50;;
72286;SDS011;60221;45.696;16.076;2023-04-25T11:59:02;2.10;;;0.20;;
72286;SDS011;60221;45.696;16.076;2023-04-25T12:01:30;15.50;;;12.50;;
72286;SDS011;60221;45.696;16.076;2023-04-25T12:04:13;7.60;;;4.30;;
72286;SDS011;60221;45.696;16.076;2023-04-25T12:06:41;3.80;;;1.00;;
72286;SDS011;60221;45.696;16.076;2023-04-25T12:09:10;4.60;;;1.10;;
72286;SDS011;60221;45.696;16.076;2023-04-25T12:14:10;2.40;;;0.70;;
72286;SDS011;60221;45.696;16.076;2023-04-25T12:16:44;3.00;;;0.60;;
72286;SDS011;60221;45.696;16.076;2023-04-25T12:19:17;2.40;;;0.40;;
72286;SDS011;60221;45.696;16.076;2023-04-25T12:21:44;1.80;;;0.40;;
72286;SDS011;60221;45.696;16.076;2023-04-25T12:24:24;1.90;;;0.40;;
72286;SDS011;60221;45.696;16.076;2023-04-25T12:26:53;2.20;;;0.40;;
72286;SDS011;60221;45.696;16.076;2023-04-25T12:29:23;2.10;;;0.40;;
72286;SDS011;60221;45.696;16.076;2023-04-25T12:31:57;2.40;;;0.50;;
72286;SDS011;60221;45.696;16.076;2023-04-25T12:34:24;3.10;;;0.40;;
72286;SDS011;60221;45.696;16.076;2023-04-25T12:36:51;4.00;;;0.70;;
72286;SDS011;60221;45.696;16.076;2023-04-25T12:39:18;3.30;;;0.40;;
72286;SDS011;60221;45.696;16.076;2023-04-25T12:41:46;3.50;;;0.60;;
72286;SDS011;60221;45.696;16.076;2023-04-25T12:44:13;2.70;;;0.50;;
72286;SDS011;60221;45.696;16.076;2023-04-25T12:46:40;2.90;;;0.60;;
72286;SDS011;60221;45.696;16.076;2023-04-25T12:49:07;2.40;;;0.70;;
72286;SDS011;60221;45.696;16.076;2023-04-25T12:51:44;19.10;;;8.00;;
72286;SDS011;60221;45.696;16.076;2023-04-25T12:54:11;5.30;;;1.40;;
72286;SDS011;60221;45.696;16.076;2023-04-25T12:56:38;3.80;;;0.50;;
72286;SDS011;60221;45.696;16.076;2023-04-25T12:59:05;4.20;;;0.50;;
72286;SDS011;60221;45.696;16.076;2023-04-25T13:01:32;9.60;;;3.30;;
72286;SDS011;60221;45.696;16.076;2023-04-25T13:04:01;15.60;;;6.20;;
72286;SDS011;60221;45.696;16.076;2023-04-25T13:06:29;4.40;;;1.20;;
72286;SDS011;60221;45.696;16.076;2023-04-25T13:08:58;1.90;;;0.30;;
72286;SDS011;60221;45.696;16.076;2023-04-25T13:11:25;2.60;;;0.60;;
72286;SDS011;60221;45.696;16.076;2023-04-25T13:13:52;2.40;;;0.70;;
72286;SDS011;60221;45.696;16.076;2023-04-25T13:16:19;1.90;;;0.40;;
72286;SDS011;60221;45.696;16.076;2023-04-25T13:18:48;2.00;;;0.40;;
72286;SDS011;60221;45.696;16.076;2023-04-25T13:21:14;2.90;;;0.50;;
72286;SDS011;60221;45.696;16.076;2023-04-25T13:23:41;2.50;;;0.60;;
72286;SDS011;60221;45.696;16.076;2023-04-25T13:26:13;3.00;;;0.50;;
72286;SDS011;60221;45.696;16.076;2023-04-25T13:28:40;3.60;;;0.60;;
72286;SDS011;60221;45.696;16.076;2023-04-25T13:31:10;2.40;;;0.50;;
72286;SDS011;60221;45.696;16.076;2023-04-25T13:33:36;2.40;;;0.60;;
72286;SDS011;60221;45.696;16.076;2023-04-25T13:36:03;2.60;;;0.50;;
72286;SDS011;60221;45.696;16.076;2023-04-25T13:38:30;2.40;;;0.50;;
72286;SDS011;60221;45.696;16.076;2023-04-25T13:40:57;2.40;;;0.80;;
72286;SDS011;60221;45.696;16.076;2023-04-25T13:43:24;3.70;;;0.80;;
72286;SDS011;60221;45.696;16.076;2023-04-25T13:45:51;3.70;;;0.80;;
72286;SDS011;60221;45.696;16.076;2023-04-25T13:48:18;1.90;;;0.50;;
72286;SDS011;60221;45.696;16.076;2023-04-25T13:50:45;3.00;;;0.60;;
72286;SDS011;60221;45.696;16.076;2023-04-25T13:53:12;3.50;;;0.70;;
72286;SDS011;60221;45.696;16.076;2023-04-25T13:55:39;3.40;;;0.80;;
72286;SDS011;60221;45.696;16.076;2023-04-25T13:58:06;2.60;;;0.40;;
72286;SDS011;60221;45.696;16.076;2023-04-25T14:00:37;3.20;;;0.50;;
72286;SDS011;60221;45.696;16.076;2023-04-25T14:03:09;2.10;;;0.40;;
72286;SDS011;60221;45.696;16.076;2023-04-25T14:05:36;3.70;;;0.50;;
72286;SDS011;60221;45.696;16.076;2023-04-25T14:08:08;2.50;;;0.60;;
72286;SDS011;60221;45.696;16.076;2023-04-25T14:10:35;1.90;;;0.40;;
72286;SDS011;60221;45.696;16.076;2023-04-25T14:13:02;3.30;;;0.70;;
72286;SDS011;60221;45.696;16.076;2023-04-25T14:15:31;3.10;;;0.70;;
72286;SDS011;60221;45.696;16.076;2023-04-25T14:17:58;1.70;;;0.50;;
72286;SDS011;60221;45.696;16.076;2023-04-25T14:20:25;3.20;;;0.50;;
72286;SDS011;60221;45.696;16.076;2023-04-25T14:22:52;3.30;;;0.60;;
72286;SDS011;60221;45.696;16.076;2023-04-25T14:25:21;1.80;;;0.40;;
72286;SDS011;60221;45.696;16.076;2023-04-25T14:27:48;2.50;;;0.40;;
72286;SDS011;60221;45.696;16.076;2023-04-25T14:30:19;1.60;;;0.40;;
72286;SDS011;60221;45.696;16.076;2023-04-25T14:32:48;2.20;;;0.40;;
72286;SDS011;60221;45.696;16.076;2023-04-25T14:35:15;1.90;;;0.40;;
72286;SDS011;60221;45.696;16.076;2023-04-25T14:37:42;3.00;;;0.30;;
72286;SDS011;60221;45.696;16.076;2023-04-25T14:40:09;2.30;;;0.30;;
72286;SDS011;60221;45.696;16.076;2023-04-25T14:42:37;2.40;;;0.30;;
72286;SDS011;60221;45.696;16.076;2023-04-25T14:45:05;2.80;;;0.30;;
72286;SDS011;60221;45.696;16.076;2023-04-25T14:47:32;1.50;;;0.30;;
72286;SDS011;60221;45.696;16.076;2023-04-25T14:50:00;1.40;;;0.20;;
72286;SDS011;60221;45.696;16.076;2023-04-25T14:52:28;2.00;;;0.30;;
72286;SDS011;60221;45.696;16.076;2023-04-25T14:54:55;2.20;;;0.30;;
72286;SDS011;60221;45.696;16.076;2023-04-25T14:57:22;1.70;;;0.30;;